METAR Data
IDs: Format: Raw Decoded Include TAF

Data at: 1207 UTC 16 Feb 2019

PAFS 161201Z AUTO 12003KT 10SM OVC080 M16/M20 A3007 RMK AO2 SLP204 T11611200 11161 21189 53002 FZRANO
PAFS 161101Z AUTO 00000KT 10SM OVC085 M16/M20 A3003 RMK AO2 SLP192 T11611200 FZRANO
PAFS 161001Z AUTO 07009KT 10SM OVC090 M17/M21 A3002 RMK AO2 SLP185 T11671206 FZRANO
PAFS 160901Z AUTO 06007KT 10SM SCT100 BKN120 M17/M21 A3001 RMK AO2 SLP184 T11721206 411721172 55006 FZRANO
PAFS 160801Z AUTO 08005KT 10SM BKN120 M18/M21 A3003 RMK AO2 SLP191 T11781211 FZRANO
PAFS 160701Z AUTO 07008KT 10SM CLR M19/M22 A3001 RMK AO2 SLP186 T11891217 FZRANO
PAFS 160601Z AUTO 07009KT 10SM CLR M19/M22 A3003 RMK AO2 SLP191 T11891217 11117 21194 55001 FZRANO
PAFS 160501Z AUTO 06005KT 10SM CLR M19/M22 A3005 RMK AO2 SLP199 T11941222 FZRANO
PAFS 160401Z AUTO 07008KT 10SM CLR M19/M22 A3005 RMK AO2 SLP198 T11941222 FZRANO
PAFS 160301Z AUTO 07004KT 10SM CLR M18/M22 A3005 RMK AO2 SLP199 T11831222 58009 FZRANO
PAFS 160201Z AUTO 04006KT 10SM CLR M15/M21 A3005 RMK AO2 SLP199 T11501206 FZRANO
PAFS 160101Z AUTO 08004KT 10SM CLR M12/M19 A3007 RMK AO2 SLP204 T11221194 FZRANO
PAFS 160001Z AUTO 06007KT 10SM CLR M13/M19 A3007 RMK AO2 SLP205 T11331194 11133 21283 58016 FZRANO
PAFS 152301Z AUTO 06009KT 10SM CLR M14/M19 A3008 RMK AO2 SLP209 T11441194 FZRANO
PAFS 152201Z AUTO 07007KT 10SM CLR M16/M21 A3010 RMK AO2 SLP215 T11561206 FZRANO
PAFS 152101Z AUTO 05006KT 10SM CLR M18/M22 A3011 RMK AO2 SLP219 T11831222 56010 FZRANO
PAFS 152001Z AUTO 05006KT 10SM CLR M22/M24 A3013 RMK AO2 SLP225 T12221244 FZRANO
PAFS 151901Z AUTO 05004KT 10SM CLR M27/M29 A3013 RMK AO2 SLP228 T12721294 FZRANO
PAFS 151801Z AUTO 06004KT 10SM CLR M28/M31 A3015 RMK AO2 SLP232 T12781306 11233 21289 58006 FZRANO
PAFS 151701Z AUTO 06004KT 10SM CLR M29/M31 A3016 RMK AO2 SLP237 T12891311 FZRANO
PAFS 151601Z AUTO 06004KT 10SM CLR M28/M31 A3016 RMK AO2 SLP238 T12781306 FZRANO
PAFS 151501Z AUTO 00000KT 10SM CLR M27/M29 A3017 RMK AO2 SLP240 T12671294 53007 FZRANO
PAFS 151401Z AUTO 03004KT 4SM BR FEW095 M25/M27 A3017 RMK AO2 SLP242 T12501272 FZRANO
PAFS 151301Z AUTO 00000KT 10SM CLR M24/M26 A3017 RMK AO2 SLP238 T12391261 FZRANO
PAFS 151201Z AUTO 09003KT 10SM FEW095 M23/M26 A3016 RMK AO2 SLP235 T12331256 11211 21239 50010 FZRANO
PAFS 151101Z AUTO 00000KT 10SM OVC075 M22/M24 A3015 RMK AO2 SLP233 T12171244 FZRANO
PAFS 151001Z AUTO 00000KT 6SM BR BKN090 OVC110 M21/M23 A3015 RMK AO2 SLP233 T12111233 FZRANO
PAFS 150901Z AUTO 03003KT 8SM OVC120 M22/M24 A3014 RMK AO2 SLP228 T12221244 412221222 51006 FZRANO
PAFS 150801Z AUTO 00000KT 10SM CLR M23/M26 A3012 RMK AO2 SLP224 T12331261 FZRANO
PAFS 150730Z AUTO 07004KT 10SM FEW017 SCT120 M24/M26 A3012 RMK AO2 FZRANO
PAFS 150701Z AUTO 00000KT 6SM HZ BKN017 M24/M27 A3012 RMK AO2 FZRANO
PAFS 150601Z AUTO 00000KT 10SM CLR M23/M26 A3010 RMK AO2 SLP218 T12331256 11144 21233 55004 FZRANO
PAFS 150501Z AUTO 03003KT 10SM CLR M20/M24 A3010 RMK AO2 SLP216 T12001239 FZRANO
PAFS 150401Z AUTO 05006KT 10SM CLR M19/M22 A3009 RMK AO2 SLP213 T11891222 FZRANO
PAFS 150301Z AUTO 04007KT 10SM CLR M18/M22 A3009 RMK AO2 SLP212 T11831217 56023 FZRANO
PAFS 150201Z AUTO 04007KT 10SM CLR M17/M22 A3011 RMK AO2 SLP220 T11721217 FZRANO
PAFS 150101Z AUTO 05006KT 10SM CLR M16/M21 A3013 RMK AO2 SLP226 T11611211 FZRANO